createdAt,value
2022-11-22T00:00:50.636Z,3.63
2022-11-22T00:05:54.177Z,3.20
2022-11-22T00:10:57.714Z,3.67
2022-11-22T00:16:04.545Z,2.93
2022-11-22T00:21:08.957Z,3.17
2022-11-22T00:26:12.505Z,2.53
2022-11-22T00:31:17.374Z,1.63
2022-11-22T00:36:20.890Z,0.40
2022-11-22T00:41:24.414Z,0.97
2022-11-22T00:46:29.362Z,0.53
2022-11-22T00:51:32.941Z,1.33
2022-11-22T00:56:36.899Z,0.47
2022-11-22T01:01:42.436Z,2.50
2022-11-22T01:06:46.102Z,1.47
2022-11-22T01:11:50.344Z,1.30
2022-11-22T01:16:55.302Z,0.97
2022-11-22T01:21:58.853Z,0.67
2022-11-22T01:27:02.520Z,1.60
2022-11-22T01:32:07.704Z,1.33
2022-11-22T01:37:11.311Z,0.70
2022-11-22T01:42:15.056Z,1.10
2022-11-22T01:47:21.513Z,0.73
2022-11-22T01:52:27.489Z,2.20
2022-11-22T01:57:34.860Z,1.17
2022-11-22T02:02:39.836Z,0.70
2022-11-22T02:07:49.468Z,0.87
2022-11-22T02:12:54.249Z,0.50
2022-11-22T02:17:59.537Z,1.10
2022-11-22T02:23:11.413Z,0.40
2022-11-22T02:28:16.311Z,0.37
2022-11-22T02:33:19.815Z,0.57
2022-11-22T02:38:26.428Z,0.40
2022-11-22T02:43:34.420Z,0.20
2022-11-22T02:48:42.383Z,0.53
2022-11-22T02:53:46.210Z,0.30
2022-11-22T02:58:51.151Z,0.30
2022-11-22T03:03:54.845Z,0.33
2022-11-22T03:08:58.727Z,0.30
2022-11-22T03:14:03.737Z,0.30
2022-11-22T03:19:07.286Z,0.20
2022-11-22T03:24:11.883Z,0.20
2022-11-22T03:29:17.036Z,0.63
2022-11-22T03:34:20.568Z,0.20
2022-11-22T03:39:24.097Z,0.27
2022-11-22T03:44:29.020Z,1.70
2022-11-22T03:49:32.842Z,0.23
2022-11-22T03:54:39.100Z,0.20
2022-11-22T03:59:44.014Z,0.40
2022-11-22T04:04:47.536Z,0.20
2022-11-22T04:09:51.096Z,0.53
2022-11-22T04:15:07.939Z,2.13
2022-11-22T04:20:32.465Z,0.87
2022-11-22T04:25:37.827Z,0.40
2022-11-22T04:31:00.604Z,0.30
2022-11-22T04:36:06.695Z,0.57
2022-11-22T04:41:13.848Z,0.30
2022-11-22T04:46:18.791Z,1.57
2022-11-22T04:51:39.573Z,1.90
2022-11-22T04:56:43.076Z,1.83
2022-11-22T05:01:47.951Z,0.73
2022-11-22T05:06:51.464Z,0.57
2022-11-22T05:11:55.006Z,0.40
2022-11-22T05:16:59.946Z,0.40
2022-11-22T05:22:03.472Z,1.20
2022-11-22T05:27:07.051Z,0.43
2022-11-22T05:32:11.947Z,1.20
2022-11-22T05:37:16.731Z,0.80
2022-11-22T05:42:20.436Z,0.80
2022-11-22T05:47:25.352Z,1.77
2022-11-22T05:52:28.898Z,0.97
2022-11-22T05:57:33.924Z,1.73
2022-11-22T06:02:38.907Z,0.87
2022-11-22T06:07:42.526Z,0.57
2022-11-22T06:12:46.149Z,2.37
2022-11-22T06:17:51.024Z,0.50
2022-11-22T06:22:54.550Z,0.50
2022-11-22T06:28:00.297Z,0.60
2022-11-22T06:33:05.354Z,1.33
2022-11-22T06:38:08.853Z,1.13
2022-11-22T06:43:12.417Z,2.10
2022-11-22T06:48:17.302Z,1.73
2022-11-22T06:53:45.246Z,2.00
2022-11-22T06:58:44.704Z,2.57
2022-11-22T07:03:50.201Z,1.37
2022-11-22T07:08:54.039Z,1.27
2022-11-22T07:14:03.483Z,3.57
2022-11-22T07:19:11.816Z,3.07
2022-11-22T07:24:15.588Z,4.43
2022-11-22T07:29:19.218Z,3.53
2022-11-22T07:34:24.155Z,2.53
2022-11-22T07:39:28.090Z,2.90
2022-11-22T07:44:31.683Z,3.07
2022-11-22T07:49:36.595Z,2.93
2022-11-22T07:54:40.377Z,5.30
2022-11-22T07:59:43.939Z,4.20
2022-11-22T08:04:48.904Z,2.20
2022-11-22T08:09:52.737Z,1.60
2022-11-22T08:14:56.284Z,1.57
2022-11-22T08:20:01.155Z,1.77
2022-11-22T08:25:05.196Z,1.50
2022-11-22T08:30:09.586Z,1.80
2022-11-22T08:35:15.236Z,2.33
2022-11-22T08:40:18.873Z,1.90
2022-11-22T08:45:22.453Z,2.00
2022-11-22T08:50:27.337Z,2.10
2022-11-22T08:55:30.845Z,2.40
2022-11-22T09:00:34.400Z,3.03
2022-11-22T09:11:03.400Z,2.83
2022-11-22T09:16:09.416Z,1.70
2022-11-22T09:21:17.815Z,2.97
2022-11-22T09:26:24.350Z,4.40
2022-11-22T09:31:27.972Z,2.03
2022-11-22T09:36:32.980Z,3.03
2022-11-22T09:41:58.099Z,3.23
2022-11-22T09:47:12.363Z,2.57
2022-11-22T09:52:25.739Z,2.30
2022-11-22T09:57:34.977Z,2.43
2022-11-22T10:02:59.400Z,2.37
2022-11-22T10:08:14.805Z,3.40
2022-11-22T10:13:23.644Z,2.43
2022-11-22T10:18:35.706Z,2.87
2022-11-22T10:23:41.582Z,3.70
2022-11-22T10:28:54.458Z,3.17
2022-11-22T10:34:04.340Z,2.30
2022-11-22T10:39:32.938Z,1.97
2022-11-22T10:44:48.403Z,1.80
2022-11-22T10:50:00.600Z,1.47
2022-11-22T10:55:18.985Z,2.93
2022-11-22T11:00:24.846Z,5.93
2022-11-22T11:05:54.996Z,3.30
2022-11-22T11:11:06.744Z,3.03
2022-11-22T11:16:13.595Z,4.10
2022-11-22T11:21:17.211Z,3.30
2022-11-22T11:26:25.198Z,2.73
2022-11-22T11:31:43.754Z,3.03
2022-11-22T11:36:47.921Z,3.13
2022-11-22T11:41:52.854Z,1.67
2022-11-22T11:46:56.424Z,2.20
2022-11-22T11:52:02.439Z,0.73
2022-11-22T11:57:12.615Z,1.10
2022-11-22T12:02:18.875Z,1.47
2022-11-22T12:07:25.702Z,2.53
2022-11-22T12:12:43.772Z,1.23
2022-11-22T12:17:59.817Z,1.47
2022-11-22T12:23:18.444Z,1.37
2022-11-22T12:28:25.700Z,0.87
2022-11-22T12:33:33.524Z,2.03
2022-11-22T12:38:41.401Z,2.30
2022-11-22T12:43:53.321Z,2.77
2022-11-22T12:49:00.234Z,1.70
2022-11-22T12:54:10.213Z,1.63
2022-11-22T12:59:22.774Z,1.63
2022-11-22T13:04:33.497Z,1.77
2022-11-22T13:09:42.620Z,3.30
2022-11-22T13:14:50.048Z,1.80
2022-11-22T13:19:56.606Z,1.33
2022-11-22T13:25:15.785Z,4.30
2022-11-22T13:30:23.929Z,1.87
2022-11-22T13:35:31.205Z,3.80
2022-11-22T13:40:36.411Z,2.80
2022-11-22T13:45:49.973Z,0.80
2022-11-22T13:51:03.670Z,1.20
2022-11-22T13:56:44.401Z,2.77
2022-11-22T14:02:01.378Z,0.50
2022-11-22T14:07:08.046Z,1.10
2022-11-22T14:12:31.440Z,0.70
2022-11-22T14:17:48.455Z,1.40
2022-11-22T14:22:59.240Z,0.90
2022-11-22T14:28:12.509Z,0.80
2022-11-22T14:33:19.796Z,1.77
2022-11-22T14:38:32.487Z,1.13
2022-11-22T14:43:40.542Z,0.63
2022-11-22T14:48:51.299Z,2.17
2022-11-22T14:53:56.507Z,0.60
2022-11-22T14:59:10.084Z,0.40
2022-11-22T15:09:10.829Z,0.70
2022-11-22T15:10:34.867Z,1.03
2022-11-22T15:59:46.991Z,0.60
2022-11-22T16:06:09.968Z,0.50
2022-11-22T16:10:22.537Z,0.80
2022-11-22T16:15:30.745Z,1.40
2022-11-22T16:20:35.098Z,0.97
2022-11-22T16:25:41.650Z,0.70
2022-11-22T16:30:45.581Z,0.90
2022-11-22T16:35:53.971Z,1.23
2022-11-22T16:41:00.779Z,0.60
2022-11-22T16:46:04.828Z,0.50
2022-11-22T16:51:14.252Z,0.40
2022-11-22T16:56:21.249Z,0.77
2022-11-22T17:01:27.007Z,0.70
2022-11-22T17:06:32.132Z,0.80
2022-11-22T17:11:37.060Z,1.53
2022-11-22T17:16:40.557Z,1.60
2022-11-22T17:21:45.113Z,1.37
2022-11-22T17:26:50.319Z,1.57
2022-11-22T17:31:53.837Z,1.50
2022-11-22T17:36:57.357Z,0.80
2022-11-22T17:42:02.262Z,0.70
2022-11-22T17:47:06.154Z,0.70
2022-11-22T17:52:09.756Z,0.80
2022-11-22T17:57:14.675Z,0.50
2022-11-22T18:02:18.269Z,0.83
2022-11-22T18:07:23.942Z,0.70
2022-11-22T18:12:29.001Z,0.80
2022-11-22T18:17:33.623Z,1.00
2022-11-22T18:22:37.209Z,0.97
2022-11-22T18:27:42.456Z,1.40
2022-11-22T18:32:46.095Z,2.00
2022-11-22T18:37:49.596Z,2.07
2022-11-22T18:42:57.112Z,1.17
2022-11-22T18:48:02.306Z,0.63
2022-11-22T18:53:05.925Z,0.90
2022-11-22T18:58:10.869Z,1.00
2022-11-22T19:03:14.492Z,1.10
2022-11-22T19:08:18.025Z,1.50
2022-11-22T19:13:22.922Z,1.20
2022-11-22T19:18:27.587Z,1.00
2022-11-22T19:23:33.049Z,0.90
2022-11-22T19:28:38.497Z,1.70
2022-11-22T19:33:42.355Z,2.63
2022-11-22T19:38:46.735Z,1.83
2022-11-22T19:43:52.627Z,1.53
2022-11-22T19:48:57.925Z,0.97
2022-11-22T19:54:03.031Z,1.43
2022-11-22T19:59:10.326Z,1.00
2022-11-22T20:04:15.268Z,2.10
2022-11-22T20:09:18.824Z,0.83
2022-11-22T20:14:23.857Z,1.00
2022-11-22T20:19:32.714Z,1.53
2022-11-22T20:24:38.034Z,0.80
2022-11-22T20:29:43.039Z,1.13
2022-11-22T20:34:47.342Z,0.77
2022-11-22T20:39:51.104Z,1.10
2022-11-22T20:44:56.004Z,2.23
2022-11-22T20:49:59.525Z,2.03
2022-11-22T20:55:05.220Z,1.10
2022-11-22T21:00:12.671Z,1.93
2022-11-22T21:05:18.830Z,1.47
2022-11-22T21:10:22.348Z,1.33
2022-11-22T21:15:27.601Z,1.90
2022-11-22T21:20:31.625Z,1.77
2022-11-22T21:25:35.210Z,2.60
2022-11-22T21:30:40.160Z,2.57
2022-11-22T21:35:45.761Z,1.77
2022-11-22T21:40:51.484Z,1.93
2022-11-22T21:45:56.813Z,1.23
2022-11-22T21:51:00.369Z,1.03
2022-11-22T21:56:03.884Z,2.03
2022-11-22T22:01:14.034Z,1.63
2022-11-22T22:06:18.041Z,1.83
2022-11-22T22:11:21.600Z,2.30
2022-11-22T22:16:26.863Z,2.03
2022-11-22T22:21:30.395Z,1.57
2022-11-22T22:26:33.967Z,1.90
2022-11-22T22:31:38.898Z,1.50
2022-11-22T22:36:42.474Z,2.27
2022-11-22T22:41:46.025Z,2.20
2022-11-22T22:46:50.918Z,4.00
2022-11-22T22:51:55.242Z,3.07
2022-11-22T22:56:58.808Z,2.90
2022-11-22T23:02:04.344Z,3.10
2022-11-22T23:07:07.921Z,3.00
2022-11-22T23:12:11.521Z,1.97
2022-11-22T23:17:16.465Z,1.30
2022-11-22T23:22:25.682Z,2.63
2022-11-22T23:27:29.563Z,2.67
2022-11-22T23:32:34.499Z,1.60
2022-11-22T23:37:38.027Z,1.90
2022-11-22T23:42:41.527Z,2.50
2022-11-22T23:47:50.875Z,2.27
2022-11-22T23:52:56.851Z,2.03
2022-11-22T23:58:01.003Z,1.00
